sensor_id;sensor_type;location;lat;lon;timestamp;pressure;altitude;pressure_sealevel;temperature;humidity
34081;BME280;20358;50.272;19.026;2023-05-13T00:01:05;98631.50;;;11.03;41.10
34081;BME280;20358;50.272;19.026;2023-05-13T00:04:12;98631.22;;;10.95;40.98
34081;BME280;20358;50.272;19.026;2023-05-13T00:07:20;98630.81;;;10.88;40.89
34081;BME280;20358;50.272;19.026;2023-05-13T00:10:26;98629.66;;;10.80;40.94
34081;BME280;20358;50.272;19.026;2023-05-13T00:13:32;98630.13;;;10.74;41.60
34081;BME280;20358;50.272;19.026;2023-05-13T00:16:39;98630.53;;;10.68;41.83
34081;BME280;20358;50.272;19.026;2023-05-13T00:19:44;98636.38;;;10.60;42.12
34081;BME280;20358;50.272;19.026;2023-05-13T00:22:53;98625.63;;;10.51;41.58
34081;BME280;20358;50.272;19.026;2023-05-13T00:25:59;98636.16;;;10.38;42.26
34081;BME280;20358;50.272;19.026;2023-05-13T00:29:06;98633.44;;;10.27;42.76
34081;BME280;20358;50.272;19.026;2023-05-13T00:32:12;98633.94;;;10.19;42.24
34081;BME280;20358;50.272;19.026;2023-05-13T00:35:18;98633.09;;;10.06;42.56
34081;BME280;20358;50.272;19.026;2023-05-13T00:38:27;98637.50;;;9.93;43.07
34081;BME280;20358;50.272;19.026;2023-05-13T00:41:33;98623.97;;;9.85;42.52
34081;BME280;20358;50.272;19.026;2023-05-13T00:44:39;98638.41;;;9.79;42.98
34081;BME280;20358;50.272;19.026;2023-05-13T00:47:46;98643.81;;;9.78;43.27
34081;BME280;20358;50.272;19.026;2023-05-13T00:50:53;98638.53;;;9.78;43.33
34081;BME280;20358;50.272;19.026;2023-05-13T00:54:03;98644.94;;;9.74;43.78
34081;BME280;20358;50.272;19.026;2023-05-13T00:57:09;98639.53;;;9.63;43.85
34081;BME280;20358;50.272;19.026;2023-05-13T01:00:16;98645.56;;;9.65;43.68
34081;BME280;20358;50.272;19.026;2023-05-13T01:03:30;98646.69;;;9.61;43.23
34081;BME280;20358;50.272;19.026;2023-05-13T01:06:50;98648.78;;;9.56;43.80
34081;BME280;20358;50.272;19.026;2023-05-13T01:10:13;98656.16;;;9.51;44.50
34081;BME280;20358;50.272;19.026;2023-05-13T01:13:29;98653.16;;;9.43;44.54
34081;BME280;20358;50.272;19.026;2023-05-13T01:16:46;98653.00;;;9.32;44.28
34081;BME280;20358;50.272;19.026;2023-05-13T01:19:57;98647.81;;;9.17;44.71
34081;BME280;20358;50.272;19.026;2023-05-13T01:23:07;98657.03;;;9.10;44.42
34081;BME280;20358;50.272;19.026;2023-05-13T01:26:14;98662.66;;;9.04;44.60
34081;BME280;20358;50.272;19.026;2023-05-13T01:29:20;98643.19;;;8.93;45.38
34081;BME280;20358;50.272;19.026;2023-05-13T01:32:28;98659.84;;;8.93;45.17
34081;BME280;20358;50.272;19.026;2023-05-13T01:35:34;98660.03;;;8.90;45.00
34081;BME280;20358;50.272;19.026;2023-05-13T01:38:47;98658.38;;;8.89;45.74
34081;BME280;20358;50.272;19.026;2023-05-13T01:41:56;98657.63;;;8.87;45.11
34081;BME280;20358;50.272;19.026;2023-05-13T01:45:04;98662.13;;;8.85;45.65
34081;BME280;20358;50.272;19.026;2023-05-13T01:48:12;98652.00;;;8.79;45.98
34081;BME280;20358;50.272;19.026;2023-05-13T01:51:23;98655.56;;;8.78;45.26
34081;BME280;20358;50.272;19.026;2023-05-13T01:54:31;98646.91;;;8.76;46.15
34081;BME280;20358;50.272;19.026;2023-05-13T01:57:43;98663.34;;;8.80;45.78
34081;BME280;20358;50.272;19.026;2023-05-13T02:00:48;98641.16;;;8.70;46.47
34081;BME280;20358;50.272;19.026;2023-05-13T02:03:56;98658.19;;;8.78;45.75
34081;BME280;20358;50.272;19.026;2023-05-13T02:07:02;98662.91;;;8.73;46.61
34081;BME280;20358;50.272;19.026;2023-05-13T02:10:12;98665.91;;;8.67;46.15
34081;BME280;20358;50.272;19.026;2023-05-13T02:13:18;98667.97;;;8.62;46.81
34081;BME280;20358;50.272;19.026;2023-05-13T02:16:25;98669.31;;;8.55;46.23
34081;BME280;20358;50.272;19.026;2023-05-13T02:19:30;98674.19;;;8.47;47.24
34081;BME280;20358;50.272;19.026;2023-05-13T02:22:37;98664.78;;;8.43;46.66
34081;BME280;20358;50.272;19.026;2023-05-13T02:25:45;98667.78;;;8.37;47.33
34081;BME280;20358;50.272;19.026;2023-05-13T02:28:52;98669.00;;;8.31;47.56
34081;BME280;20358;50.272;19.026;2023-05-13T02:31:57;98668.72;;;8.22;47.93
34081;BME280;20358;50.272;19.026;2023-05-13T02:35:04;98666.44;;;8.16;47.56
34081;BME280;20358;50.272;19.026;2023-05-13T02:38:10;98661.53;;;8.10;48.48
34081;BME280;20358;50.272;19.026;2023-05-13T02:41:20;98672.84;;;8.12;47.64
34081;BME280;20358;50.272;19.026;2023-05-13T02:44:26;98668.31;;;8.14;47.57
34081;BME280;20358;50.272;19.026;2023-05-13T02:47:32;98673.41;;;8.17;48.10
34081;BME280;20358;50.272;19.026;2023-05-13T02:50:39;98675.09;;;8.18;47.77
34081;BME280;20358;50.272;19.026;2023-05-13T02:53:46;98678.50;;;8.20;48.68
34081;BME280;20358;50.272;19.026;2023-05-13T02:56:55;98681.19;;;8.18;48.64
34081;BME280;20358;50.272;19.026;2023-05-13T03:00:02;98684.78;;;8.17;47.84
34081;BME280;20358;50.272;19.026;2023-05-13T03:03:10;98681.19;;;8.18;48.61
34081;BME280;20358;50.272;19.026;2023-05-13T03:06:17;98690.69;;;8.21;48.47
34081;BME280;20358;50.272;19.026;2023-05-13T03:09:22;98696.81;;;8.21;48.90
34081;BME280;20358;50.272;19.026;2023-05-13T03:12:31;98701.88;;;8.24;48.86
34081;BME280;20358;50.272;19.026;2023-05-13T03:15:37;98694.84;;;8.25;48.40
34081;BME280;20358;50.272;19.026;2023-05-13T03:18:46;98696.44;;;8.27;49.11
34081;BME280;20358;50.272;19.026;2023-05-13T03:21:52;98695.41;;;8.30;48.65
34081;BME280;20358;50.272;19.026;2023-05-13T03:24:59;98697.09;;;8.31;48.91
34081;BME280;20358;50.272;19.026;2023-05-13T03:28:16;98685.06;;;8.27;48.65
34081;BME280;20358;50.272;19.026;2023-05-13T03:31:22;98706.34;;;8.38;48.73
34081;BME280;20358;50.272;19.026;2023-05-13T03:34:29;98708.75;;;8.41;48.25
34081;BME280;20358;50.272;19.026;2023-05-13T03:37:35;98702.94;;;8.50;48.48
34081;BME280;20358;50.272;19.026;2023-05-13T03:40:42;98707.84;;;8.56;48.71
34081;BME280;20358;50.272;19.026;2023-05-13T03:43:52;98717.81;;;8.65;48.50
34081;BME280;20358;50.272;19.026;2023-05-13T03:46:58;98716.41;;;8.74;49.31
34081;BME280;20358;50.272;19.026;2023-05-13T03:50:06;98692.53;;;8.63;47.87
34081;BME280;20358;50.272;19.026;2023-05-13T03:53:17;98720.84;;;8.87;48.70
34081;BME280;20358;50.272;19.026;2023-05-13T03:56:24;98726.44;;;8.95;48.55
34081;BME280;20358;50.272;19.026;2023-05-13T03:59:32;98735.75;;;9.01;47.51
34081;BME280;20358;50.272;19.026;2023-05-13T04:02:38;98661.97;;;8.60;48.17
34081;BME280;20358;50.272;19.026;2023-05-13T04:05:47;98735.41;;;9.07;47.78
34081;BME280;20358;50.272;19.026;2023-05-13T04:08:55;98744.91;;;9.09;48.01
34081;BME280;20358;50.272;19.026;2023-05-13T04:12:02;98744.72;;;9.12;47.95
34081;BME280;20358;50.272;19.026;2023-05-13T04:15:12;98737.53;;;9.14;48.02
34081;BME280;20358;50.272;19.026;2023-05-13T04:18:18;98736.66;;;9.15;48.62
34081;BME280;20358;50.272;19.026;2023-05-13T04:21:24;98749.03;;;9.28;48.18
34081;BME280;20358;50.272;19.026;2023-05-13T04:24:30;98748.84;;;9.31;48.59
34081;BME280;20358;50.272;19.026;2023-05-13T04:27:36;98741.81;;;9.31;47.99
34081;BME280;20358;50.272;19.026;2023-05-13T04:30:51;98753.34;;;9.43;47.81
34081;BME280;20358;50.272;19.026;2023-05-13T04:33:58;98743.75;;;9.42;48.15
34081;BME280;20358;50.272;19.026;2023-05-13T04:37:04;98746.72;;;9.50;48.70
34081;BME280;20358;50.272;19.026;2023-05-13T04:40:11;98751.44;;;9.59;47.71
34081;BME280;20358;50.272;19.026;2023-05-13T04:43:17;98757.06;;;9.67;47.99
34081;BME280;20358;50.272;19.026;2023-05-13T04:46:31;98764.47;;;9.74;48.02
34081;BME280;20358;50.272;19.026;2023-05-13T04:49:39;98753.53;;;9.80;47.31
34081;BME280;20358;50.272;19.026;2023-05-13T04:52:46;98759.25;;;9.87;47.40
34081;BME280;20358;50.272;19.026;2023-05-13T04:55:52;98760.34;;;9.97;47.68
34081;BME280;20358;50.272;19.026;2023-05-13T04:59:04;98761.84;;;10.01;47.19
34081;BME280;20358;50.272;19.026;2023-05-13T05:02:12;98767.75;;;10.05;47.04
34081;BME280;20358;50.272;19.026;2023-05-13T05:05:19;98766.69;;;10.07;47.30
34081;BME280;20358;50.272;19.026;2023-05-13T05:08:25;98747.47;;;10.05;47.62
34081;BME280;20358;50.272;19.026;2023-05-13T05:11:32;98771.19;;;10.19;47.48
34081;BME280;20358;50.272;19.026;2023-05-13T05:14:38;98771.75;;;10.24;46.52
34081;BME280;20358;50.272;19.026;2023-05-13T05:17:48;98773.63;;;10.22;47.01
34081;BME280;20358;50.272;19.026;2023-05-13T05:20:54;98774.47;;;10.23;46.57
34081;BME280;20358;50.272;19.026;2023-05-13T05:24:04;98773.97;;;10.30;46.78
34081;BME280;20358;50.272;19.026;2023-05-13T05:27:10;98766.03;;;10.30;46.93
34081;BME280;20358;50.272;19.026;2023-05-13T05:30:17;98771.66;;;10.51;47.06
34081;BME280;20358;50.272;19.026;2023-05-13T05:33:34;98778.66;;;10.65;46.75
34081;BME280;20358;50.272;19.026;2023-05-13T05:36:41;98775.94;;;10.79;46.89
34081;BME280;20358;50.272;19.026;2023-05-13T05:39:48;98782.06;;;10.92;46.45
34081;BME280;20358;50.272;19.026;2023-05-13T05:42:55;98781.63;;;10.98;45.90
34081;BME280;20358;50.272;19.026;2023-05-13T05:46:00;98784.81;;;11.16;45.78
34081;BME280;20358;50.272;19.026;2023-05-13T05:49:10;98785.22;;;11.22;45.30
34081;BME280;20358;50.272;19.026;2023-05-13T05:52:15;98784.06;;;11.26;44.91
34081;BME280;20358;50.272;19.026;2023-05-13T05:55:23;98787.47;;;11.28;45.25
34081;BME280;20358;50.272;19.026;2023-05-13T05:58:29;98781.94;;;11.31;45.16
34081;BME280;20358;50.272;19.026;2023-05-13T06:01:36;98780.06;;;11.33;44.80
34081;BME280;20358;50.272;19.026;2023-05-13T06:04:44;98788.59;;;11.37;44.88
34081;BME280;20358;50.272;19.026;2023-05-13T06:07:51;98792.19;;;11.48;44.94
34081;BME280;20358;50.272;19.026;2023-05-13T06:10:57;98787.63;;;11.50;44.82
34081;BME280;20358;50.272;19.026;2023-05-13T06:14:04;98784.03;;;11.51;45.04
34081;BME280;20358;50.272;19.026;2023-05-13T06:17:10;98791.81;;;11.65;45.01
34081;BME280;20358;50.272;19.026;2023-05-13T06:20:19;98796.75;;;11.83;44.46
34081;BME280;20358;50.272;19.026;2023-05-13T06:23:25;98792.00;;;11.99;44.11
34081;BME280;20358;50.272;19.026;2023-05-13T06:26:31;98794.47;;;12.13;43.78
34081;BME280;20358;50.272;19.026;2023-05-13T06:29:37;98797.00;;;12.27;43.38
34081;BME280;20358;50.272;19.026;2023-05-13T06:32:43;98796.94;;;12.40;43.32
34081;BME280;20358;50.272;19.026;2023-05-13T06:36:07;98795.38;;;12.48;43.60
34081;BME280;20358;50.272;19.026;2023-05-13T06:39:14;98788.31;;;12.60;42.94
34081;BME280;20358;50.272;19.026;2023-05-13T06:42:20;98785.31;;;12.64;43.01
34081;BME280;20358;50.272;19.026;2023-05-13T06:45:34;98784.84;;;12.70;43.56
34081;BME280;20358;50.272;19.026;2023-05-13T06:48:40;98783.91;;;12.82;43.41
34081;BME280;20358;50.272;19.026;2023-05-13T06:51:49;98781.50;;;12.90;42.84
34081;BME280;20358;50.272;19.026;2023-05-13T06:54:55;98787.78;;;13.01;42.77
34081;BME280;20358;50.272;19.026;2023-05-13T06:58:02;98778.16;;;13.11;42.06
34081;BME280;20358;50.272;19.026;2023-05-13T07:01:07;98782.63;;;13.21;42.31
34081;BME280;20358;50.272;19.026;2023-05-13T07:04:14;98779.84;;;13.34;42.05
34081;BME280;20358;50.272;19.026;2023-05-13T07:07:23;98781.41;;;13.47;41.81
34081;BME280;20358;50.272;19.026;2023-05-13T07:10:30;98772.59;;;13.58;40.60
34081;BME280;20358;50.272;19.026;2023-05-13T07:13:35;98764.88;;;13.66;40.58
34081;BME280;20358;50.272;19.026;2023-05-13T07:16:42;98769.44;;;13.75;39.90
34081;BME280;20358;50.272;19.026;2023-05-13T07:19:50;98758.31;;;13.81;40.00
34081;BME280;20358;50.272;19.026;2023-05-13T07:22:59;98753.00;;;13.81;39.44
34081;BME280;20358;50.272;19.026;2023-05-13T07:26:05;98768.44;;;13.87;39.60
34081;BME280;20358;50.272;19.026;2023-05-13T07:29:12;98766.06;;;13.95;39.77
34081;BME280;20358;50.272;19.026;2023-05-13T07:32:18;98757.69;;;14.00;39.34
34081;BME280;20358;50.272;19.026;2023-05-13T07:35:24;98765.03;;;14.07;39.42
34081;BME280;20358;50.272;19.026;2023-05-13T07:38:33;98757.53;;;14.12;39.47
34081;BME280;20358;50.272;19.026;2023-05-13T07:41:39;98758.22;;;14.15;39.40
34081;BME280;20358;50.272;19.026;2023-05-13T07:44:45;98753.13;;;14.23;38.52
34081;BME280;20358;50.272;19.026;2023-05-13T07:47:51;98752.56;;;14.19;38.54
34081;BME280;20358;50.272;19.026;2023-05-13T07:50:57;98750.63;;;14.21;38.13
34081;BME280;20358;50.272;19.026;2023-05-13T07:54:07;98761.56;;;14.28;38.21
34081;BME280;20358;50.272;19.026;2023-05-13T07:57:13;98747.38;;;14.38;38.17
34081;BME280;20358;50.272;19.026;2023-05-13T08:00:20;98748.63;;;14.55;37.77
34081;BME280;20358;50.272;19.026;2023-05-13T08:03:26;98748.28;;;14.69;37.59
34081;BME280;20358;50.272;19.026;2023-05-13T08:06:33;98746.28;;;14.82;37.27
34081;BME280;20358;50.272;19.026;2023-05-13T08:09:42;98753.75;;;14.88;36.68
34081;BME280;20358;50.272;19.026;2023-05-13T08:12:50;98759.25;;;14.96;37.23
34081;BME280;20358;50.272;19.026;2023-05-13T08:15:59;98759.00;;;14.99;36.85
34081;BME280;20358;50.272;19.026;2023-05-13T08:19:06;98770.19;;;15.03;36.69
34081;BME280;20358;50.272;19.026;2023-05-13T08:22:11;98754.38;;;15.01;36.59
34081;BME280;20358;50.272;19.026;2023-05-13T08:25:21;98762.94;;;15.05;36.38
34081;BME280;20358;50.272;19.026;2023-05-13T08:28:27;98750.66;;;15.13;35.89
34081;BME280;20358;50.272;19.026;2023-05-13T08:31:34;98763.03;;;15.24;35.97
34081;BME280;20358;50.272;19.026;2023-05-13T08:34:39;98753.81;;;15.28;35.59
34081;BME280;20358;50.272;19.026;2023-05-13T08:37:46;98766.88;;;15.41;35.02
34081;BME280;20358;50.272;19.026;2023-05-13T08:40:54;98760.94;;;15.58;35.42
34081;BME280;20358;50.272;19.026;2023-05-13T08:44:03;98764.63;;;15.76;35.33
34081;BME280;20358;50.272;19.026;2023-05-13T08:47:17;98754.28;;;15.92;34.73
34081;BME280;20358;50.272;19.026;2023-05-13T08:50:32;98752.31;;;16.04;33.88
34081;BME280;20358;50.272;19.026;2023-05-13T08:53:38;98755.97;;;16.12;33.78
34081;BME280;20358;50.272;19.026;2023-05-13T08:56:48;98751.47;;;16.22;33.79
34081;BME280;20358;50.272;19.026;2023-05-13T08:59:54;98753.19;;;16.33;33.82
34081;BME280;20358;50.272;19.026;2023-05-13T09:03:00;98761.59;;;16.47;33.03
34081;BME280;20358;50.272;19.026;2023-05-13T09:06:08;98758.38;;;16.53;32.99
34081;BME280;20358;50.272;19.026;2023-05-13T09:09:15;98756.13;;;16.59;32.85
34081;BME280;20358;50.272;19.026;2023-05-13T09:12:49;98758.50;;;16.62;33.03
34081;BME280;20358;50.272;19.026;2023-05-13T09:15:57;98759.06;;;16.65;32.48
34081;BME280;20358;50.272;19.026;2023-05-13T09:19:04;98752.91;;;16.65;32.37
34081;BME280;20358;50.272;19.026;2023-05-13T09:22:16;98745.47;;;16.59;32.24
34081;BME280;20358;50.272;19.026;2023-05-13T09:25:23;98759.06;;;16.65;31.78
34081;BME280;20358;50.272;19.026;2023-05-13T09:28:33;98753.75;;;16.65;32.30
34081;BME280;20358;50.272;19.026;2023-05-13T09:31:38;98749.66;;;16.71;32.63
34081;BME280;20358;50.272;19.026;2023-05-13T09:34:46;98742.53;;;16.52;32.11
34081;BME280;20358;50.272;19.026;2023-05-13T09:37:53;98756.25;;;16.47;32.83
34081;BME280;20358;50.272;19.026;2023-05-13T09:41:01;98751.25;;;16.44;31.87
34081;BME280;20358;50.272;19.026;2023-05-13T09:44:12;98739.72;;;16.53;32.54
34081;BME280;20358;50.272;19.026;2023-05-13T09:47:25;98739.69;;;16.73;31.31
34081;BME280;20358;50.272;19.026;2023-05-13T09:50:30;98735.41;;;16.89;31.30
34081;BME280;20358;50.272;19.026;2023-05-13T09:53:39;98728.38;;;16.98;31.44
34081;BME280;20358;50.272;19.026;2023-05-13T09:56:45;98744.25;;;17.09;30.46
34081;BME280;20358;50.272;19.026;2023-05-13T09:59:55;98737.03;;;17.19;29.58
34081;BME280;20358;50.272;19.026;2023-05-13T10:03:12;98730.00;;;17.18;29.32
34081;BME280;20358;50.272;19.026;2023-05-13T10:06:22;98738.75;;;17.20;29.82
34081;BME280;20358;50.272;19.026;2023-05-13T10:09:34;98727.41;;;17.36;29.92
34081;BME280;20358;50.272;19.026;2023-05-13T10:12:42;98726.44;;;17.54;29.53
34081;BME280;20358;50.272;19.026;2023-05-13T10:15:52;98734.47;;;17.54;29.30
34081;BME280;20358;50.272;19.026;2023-05-13T10:19:00;98739.72;;;17.46;29.19
34081;BME280;20358;50.272;19.026;2023-05-13T10:22:07;98725.28;;;17.39;29.03
34081;BME280;20358;50.272;19.026;2023-05-13T10:25:13;98722.59;;;17.39;28.72
34081;BME280;20358;50.272;19.026;2023-05-13T10:28:19;98743.50;;;17.44;28.81
34081;BME280;20358;50.272;19.026;2023-05-13T10:31:30;98732.09;;;17.51;28.94
34081;BME280;20358;50.272;19.026;2023-05-13T10:34:37;98743.78;;;17.50;29.15
34081;BME280;20358;50.272;19.026;2023-05-13T10:38:04;98730.16;;;17.44;29.27
34081;BME280;20358;50.272;19.026;2023-05-13T10:41:33;98747.22;;;17.33;29.33
34081;BME280;20358;50.272;19.026;2023-05-13T10:44:57;98741.47;;;17.28;29.53
34081;BME280;20358;50.272;19.026;2023-05-13T10:48:12;98730.81;;;17.28;29.12
34081;BME280;20358;50.272;19.026;2023-05-13T10:51:23;98734.19;;;17.30;29.59
34081;BME280;20358;50.272;19.026;2023-05-13T10:54:35;98740.22;;;17.32;28.94
34081;BME280;20358;50.272;19.026;2023-05-13T10:58:08;98726.19;;;17.30;29.39
34081;BME280;20358;50.272;19.026;2023-05-13T11:01:17;98724.31;;;17.31;29.75
34081;BME280;20358;50.272;19.026;2023-05-13T11:05:01;98740.81;;;17.53;29.53
34081;BME280;20358;50.272;19.026;2023-05-13T11:08:10;98733.44;;;17.65;28.79
34081;BME280;20358;50.272;19.026;2023-05-13T11:11:29;98739.03;;;17.71;29.13
34081;BME280;20358;50.272;19.026;2023-05-13T11:14:37;98749.09;;;17.77;29.65
34081;BME280;20358;50.272;19.026;2023-05-13T11:17:47;98757.53;;;17.83;28.45
34081;BME280;20358;50.272;19.026;2023-05-13T11:21:06;98756.63;;;17.92;29.02
34081;BME280;20358;50.272;19.026;2023-05-13T11:24:16;98755.72;;;18.01;29.01
34081;BME280;20358;50.272;19.026;2023-05-13T11:27:23;98766.56;;;18.17;28.55
34081;BME280;20358;50.272;19.026;2023-05-13T11:30:29;98758.94;;;18.22;29.20
34081;BME280;20358;50.272;19.026;2023-05-13T11:34:05;98760.53;;;18.15;29.34
34081;BME280;20358;50.272;19.026;2023-05-13T11:37:19;98750.31;;;18.10;29.23
34081;BME280;20358;50.272;19.026;2023-05-13T11:40:27;98760.75;;;18.04;29.72
34081;BME280;20358;50.272;19.026;2023-05-13T11:43:35;98754.25;;;18.06;29.56
34081;BME280;20358;50.272;19.026;2023-05-13T11:46:52;98754.25;;;18.06;29.93
34081;BME280;20358;50.272;19.026;2023-05-13T11:49:59;98752.13;;;18.10;30.21
34081;BME280;20358;50.272;19.026;2023-05-13T11:53:08;98753.75;;;18.03;29.58
34081;BME280;20358;50.272;19.026;2023-05-13T11:56:14;98748.06;;;18.06;30.30
34081;BME280;20358;50.272;19.026;2023-05-13T11:59:20;98754.50;;;18.13;29.82
34081;BME280;20358;50.272;19.026;2023-05-13T12:02:30;98761.91;;;18.19;30.40
34081;BME280;20358;50.272;19.026;2023-05-13T12:05:37;98755.44;;;18.39;30.20
34081;BME280;20358;50.272;19.026;2023-05-13T12:08:49;98744.25;;;18.61;30.08
34081;BME280;20358;50.272;19.026;2023-05-13T12:11:54;98752.41;;;18.77;29.72
34081;BME280;20358;50.272;19.026;2023-05-13T12:15:06;98546.25;;;17.58;29.73
34081;BME280;20358;50.272;19.026;2023-05-13T12:18:14;98748.03;;;18.76;29.78
34081;BME280;20358;50.272;19.026;2023-05-13T12:21:21;98752.66;;;18.92;29.65
34081;BME280;20358;50.272;19.026;2023-05-13T12:24:32;98748.25;;;19.09;30.05
34081;BME280;20358;50.272;19.026;2023-05-13T12:27:38;98742.06;;;19.34;30.19
34081;BME280;20358;50.272;19.026;2023-05-13T12:30:50;98737.78;;;19.57;29.43
34081;BME280;20358;50.272;19.026;2023-05-13T12:33:58;98740.25;;;19.84;28.93
34081;BME280;20358;50.272;19.026;2023-05-13T12:37:10;98739.94;;;19.95;28.81
34081;BME280;20358;50.272;19.026;2023-05-13T12:40:20;98738.56;;;19.83;28.72
34081;BME280;20358;50.272;19.026;2023-05-13T12:43:31;98733.34;;;19.74;29.34
34081;BME280;20358;50.272;19.026;2023-05-13T12:46:48;98740.31;;;19.58;29.28
34081;BME280;20358;50.272;19.026;2023-05-13T12:49:58;98733.81;;;19.61;30.00
34081;BME280;20358;50.272;19.026;2023-05-13T12:53:05;98733.41;;;19.48;29.08
34081;BME280;20358;50.272;19.026;2023-05-13T12:56:13;98733.78;;;19.19;29.24
34081;BME280;20358;50.272;19.026;2023-05-13T12:59:20;98739.75;;;18.87;29.43
34081;BME280;20358;50.272;19.026;2023-05-13T13:02:26;98727.84;;;18.82;30.07
34081;BME280;20358;50.272;19.026;2023-05-13T13:05:32;98717.75;;;18.68;29.72
34081;BME280;20358;50.272;19.026;2023-05-13T13:08:38;98679.69;;;18.56;30.43
34081;BME280;20358;50.272;19.026;2023-05-13T13:11:48;98710.81;;;18.83;30.43
34081;BME280;20358;50.272;19.026;2023-05-13T13:14:53;98716.28;;;18.81;29.35
34081;BME280;20358;50.272;19.026;2023-05-13T13:18:00;98718.28;;;18.79;29.72
34081;BME280;20358;50.272;19.026;2023-05-13T13:21:06;98712.38;;;18.93;30.06
34081;BME280;20358;50.272;19.026;2023-05-13T13:24:12;98700.94;;;18.83;29.31
34081;BME280;20358;50.272;19.026;2023-05-13T13:27:21;98701.56;;;18.77;29.56
34081;BME280;20358;50.272;19.026;2023-05-13T13:30:27;98702.00;;;18.65;29.27
34081;BME280;20358;50.272;19.026;2023-05-13T13:33:34;98712.16;;;18.44;28.63
34081;BME280;20358;50.272;19.026;2023-05-13T13:36:41;98716.84;;;18.24;29.47
34081;BME280;20358;50.272;19.026;2023-05-13T13:39:46;98721.03;;;18.09;29.23
34081;BME280;20358;50.272;19.026;2023-05-13T13:42:55;98724.03;;;17.88;29.21
34081;BME280;20358;50.272;19.026;2023-05-13T13:46:01;98719.00;;;17.75;29.82
34081;BME280;20358;50.272;19.026;2023-05-13T13:49:08;98711.84;;;17.58;30.06
34081;BME280;20358;50.272;19.026;2023-05-13T13:52:24;98708.53;;;17.64;30.59
34081;BME280;20358;50.272;19.026;2023-05-13T13:55:31;98723.50;;;17.75;30.00
34081;BME280;20358;50.272;19.026;2023-05-13T13:58:40;98711.41;;;17.81;30.33
34081;BME280;20358;50.272;19.026;2023-05-13T14:01:46;98718.63;;;17.70;29.88
34081;BME280;20358;50.272;19.026;2023-05-13T14:04:52;98721.38;;;17.61;30.14
34081;BME280;20358;50.272;19.026;2023-05-13T14:07:59;98710.13;;;17.57;30.31
34081;BME280;20358;50.272;19.026;2023-05-13T14:11:05;98724.19;;;17.59;30.81
34081;BME280;20358;50.272;19.026;2023-05-13T14:14:14;98724.66;;;17.72;30.92
34081;BME280;20358;50.272;19.026;2023-05-13T14:17:20;98720.91;;;17.93;30.33
34081;BME280;20358;50.272;19.026;2023-05-13T14:20:26;98724.94;;;17.97;30.22
34081;BME280;20358;50.272;19.026;2023-05-13T14:23:32;98729.31;;;17.98;30.06
34081;BME280;20358;50.272;19.026;2023-05-13T14:26:39;98722.28;;;17.97;29.94
34081;BME280;20358;50.272;19.026;2023-05-13T14:29:48;98727.03;;;18.03;30.43
34081;BME280;20358;50.272;19.026;2023-05-13T14:32:54;98729.44;;;18.14;30.18
34081;BME280;20358;50.272;19.026;2023-05-13T14:36:02;98734.03;;;18.21;30.71
34081;BME280;20358;50.272;19.026;2023-05-13T14:39:11;98733.88;;;18.23;30.43
34081;BME280;20358;50.272;19.026;2023-05-13T14:42:17;98741.91;;;18.23;29.86
34081;BME280;20358;50.272;19.026;2023-05-13T14:45:27;98737.78;;;18.28;30.31
34081;BME280;20358;50.272;19.026;2023-05-13T14:48:34;98727.09;;;18.28;30.20
34081;BME280;20358;50.272;19.026;2023-05-13T14:51:40;98733.59;;;18.26;30.08
34081;BME280;20358;50.272;19.026;2023-05-13T14:54:46;98731.03;;;18.24;29.55
34081;BME280;20358;50.272;19.026;2023-05-13T14:57:53;98731.34;;;18.21;30.13
34081;BME280;20358;50.272;19.026;2023-05-13T15:01:01;98728.28;;;18.16;30.54
34081;BME280;20358;50.272;19.026;2023-05-13T15:04:08;98734.50;;;18.17;30.59
34081;BME280;20358;50.272;19.026;2023-05-13T15:07:14;98721.81;;;18.19;30.24
34081;BME280;20358;50.272;19.026;2023-05-13T15:10:20;98713.28;;;17.98;29.85
34081;BME280;20358;50.272;19.026;2023-05-13T15:13:26;98735.16;;;17.84;30.17
34081;BME280;20358;50.272;19.026;2023-05-13T15:16:39;98726.00;;;17.86;30.27
34081;BME280;20358;50.272;19.026;2023-05-13T15:19:46;98732.41;;;17.93;30.22
34081;BME280;20358;50.272;19.026;2023-05-13T15:22:52;98727.63;;;17.97;29.72
34081;BME280;20358;50.272;19.026;2023-05-13T15:25:59;98733.81;;;17.97;29.97
34081;BME280;20358;50.272;19.026;2023-05-13T15:29:05;98733.50;;;18.00;29.89
34081;BME280;20358;50.272;19.026;2023-05-13T15:32:13;98735.84;;;18.03;29.76
34081;BME280;20358;50.272;19.026;2023-05-13T15:35:20;98730.97;;;17.99;29.85
34081;BME280;20358;50.272;19.026;2023-05-13T15:38:26;98735.38;;;17.90;29.54
34081;BME280;20358;50.272;19.026;2023-05-13T15:41:33;98733.63;;;17.81;29.66
34081;BME280;20358;50.272;19.026;2023-05-13T15:44:39;98734.78;;;17.79;29.99
34081;BME280;20358;50.272;19.026;2023-05-13T15:47:50;98726.66;;;17.70;30.22
34081;BME280;20358;50.272;19.026;2023-05-13T15:50:56;98727.84;;;17.58;29.88
34081;BME280;20358;50.272;19.026;2023-05-13T15:54:02;98724.78;;;17.53;29.90
34081;BME280;20358;50.272;19.026;2023-05-13T15:57:08;98720.34;;;17.44;30.46
34081;BME280;20358;50.272;19.026;2023-05-13T16:00:16;98711.44;;;17.26;30.63
34081;BME280;20358;50.272;19.026;2023-05-13T16:03:26;98721.78;;;17.02;31.00
34081;BME280;20358;50.272;19.026;2023-05-13T16:06:33;98725.34;;;16.83;31.57
34081;BME280;20358;50.272;19.026;2023-05-13T16:09:39;98719.72;;;16.77;31.96
34081;BME280;20358;50.272;19.026;2023-05-13T16:12:46;98721.03;;;16.73;32.24
34081;BME280;20358;50.272;19.026;2023-05-13T16:15:51;98719.47;;;16.70;32.28
34081;BME280;20358;50.272;19.026;2023-05-13T16:19:01;98724.25;;;16.67;31.97
34081;BME280;20358;50.272;19.026;2023-05-13T16:22:23;98711.94;;;16.56;32.09
34081;BME280;20358;50.272;19.026;2023-05-13T16:25:32;98722.34;;;16.49;32.14
34081;BME280;20358;50.272;19.026;2023-05-13T16:28:38;98709.28;;;16.46;32.21